sensor_id;sensor_type;location;lat;lon;timestamp;temperature;humidity
20288;DHT22;10303;51.960;8.372;2022-11-30T00:03:42;12.00;99.90
20288;DHT22;10303;51.960;8.372;2022-11-30T00:06:11;11.90;99.90
20288;DHT22;10303;51.960;8.372;2022-11-30T00:08:40;11.90;99.90
20288;DHT22;10303;51.960;8.372;2022-11-30T00:11:12;11.90;99.90
20288;DHT22;10303;51.960;8.372;2022-11-30T00:13:41;11.90;99.90
20288;DHT22;10303;51.960;8.372;2022-11-30T00:16:07;11.80;99.90
20288;DHT22;10303;51.960;8.372;2022-11-30T00:18:34;11.80;99.90
20288;DHT22;10303;51.960;8.372;2022-11-30T00:21:03;11.80;99.90
20288;DHT22;10303;51.960;8.372;2022-11-30T00:23:38;11.70;99.90
20288;DHT22;10303;51.960;8.372;2022-11-30T00:26:07;11.70;99.90
20288;DHT22;10303;51.960;8.372;2022-11-30T00:28:38;11.70;99.90
20288;DHT22;10303;51.960;8.372;2022-11-30T00:31:07;11.60;99.90
20288;DHT22;10303;51.960;8.372;2022-11-30T00:33:36;11.60;99.90
20288;DHT22;10303;51.960;8.372;2022-11-30T00:36:09;11.50;99.90
20288;DHT22;10303;51.960;8.372;2022-11-30T00:38:37;11.40;99.90
20288;DHT22;10303;51.960;8.372;2022-11-30T00:41:04;11.40;99.90
20288;DHT22;10303;51.960;8.372;2022-11-30T00:43:30;11.30;99.90
20288;DHT22;10303;51.960;8.372;2022-11-30T00:45:57;11.30;99.90
20288;DHT22;10303;51.960;8.372;2022-11-30T00:48:23;11.30;99.90
20288;DHT22;10303;51.960;8.372;2022-11-30T00:50:50;11.30;99.90
20288;DHT22;10303;51.960;8.372;2022-11-30T00:53:17;11.30;99.90
20288;DHT22;10303;51.960;8.372;2022-11-30T00:55:44;11.30;99.90
20288;DHT22;10303;51.960;8.372;2022-11-30T00:58:12;11.30;99.90
20288;DHT22;10303;51.960;8.372;2022-11-30T01:00:40;11.20;99.90
20288;DHT22;10303;51.960;8.372;2022-11-30T01:03:06;11.20;99.90
20288;DHT22;10303;51.960;8.372;2022-11-30T01:05:34;11.20;99.90
20288;DHT22;10303;51.960;8.372;2022-11-30T01:08:04;11.20;99.90
20288;DHT22;10303;51.960;8.372;2022-11-30T01:10:34;11.20;99.90
20288;DHT22;10303;51.960;8.372;2022-11-30T01:13:02;11.20;99.90
20288;DHT22;10303;51.960;8.372;2022-11-30T01:15:29;11.20;99.90
20288;DHT22;10303;51.960;8.372;2022-11-30T01:17:58;11.20;99.90
20288;DHT22;10303;51.960;8.372;2022-11-30T01:20:24;11.20;99.90
20288;DHT22;10303;51.960;8.372;2022-11-30T01:22:50;11.20;99.90
20288;DHT22;10303;51.960;8.372;2022-11-30T01:25:16;11.20;99.90
20288;DHT22;10303;51.960;8.372;2022-11-30T01:27:42;11.20;99.90
20288;DHT22;10303;51.960;8.372;2022-11-30T01:30:09;11.20;99.90
20288;DHT22;10303;51.960;8.372;2022-11-30T01:32:36;11.10;99.90
20288;DHT22;10303;51.960;8.372;2022-11-30T01:35:02;11.10;99.90
20288;DHT22;10303;51.960;8.372;2022-11-30T01:37:29;11.10;99.90
20288;DHT22;10303;51.960;8.372;2022-11-30T01:39:55;11.10;99.90
20288;DHT22;10303;51.960;8.372;2022-11-30T01:42:21;11.00;99.90
20288;DHT22;10303;51.960;8.372;2022-11-30T01:47:36;10.80;99.90
20288;DHT22;10303;51.960;8.372;2022-11-30T01:50:25;10.80;99.90
20288;DHT22;10303;51.960;8.372;2022-11-30T01:52:56;10.80;99.90
20288;DHT22;10303;51.960;8.372;2022-11-30T01:55:35;10.80;99.90
20288;DHT22;10303;51.960;8.372;2022-11-30T01:58:07;10.80;99.90
20288;DHT22;10303;51.960;8.372;2022-11-30T02:00:36;10.80;99.90
20288;DHT22;10303;51.960;8.372;2022-11-30T02:03:27;10.90;99.90
20288;DHT22;10303;51.960;8.372;2022-11-30T02:06:11;10.90;99.90
20288;DHT22;10303;51.960;8.372;2022-11-30T02:08:37;11.00;99.90
20288;DHT22;10303;51.960;8.372;2022-11-30T02:11:05;10.90;99.90
20288;DHT22;10303;51.960;8.372;2022-11-30T02:30:14;10.70;99.90
20288;DHT22;10303;51.960;8.372;2022-11-30T02:35:28;10.60;99.90
20288;DHT22;10303;51.960;8.372;2022-11-30T02:38:00;10.50;99.90
20288;DHT22;10303;51.960;8.372;2022-11-30T02:40:29;10.60;99.90
20288;DHT22;10303;51.960;8.372;2022-11-30T02:42:56;10.60;99.90
20288;DHT22;10303;51.960;8.372;2022-11-30T02:48:27;10.60;99.90
20288;DHT22;10303;51.960;8.372;2022-11-30T02:51:01;10.60;99.90
20288;DHT22;10303;51.960;8.372;2022-11-30T02:53:29;10.60;99.90
20288;DHT22;10303;51.960;8.372;2022-11-30T02:55:55;10.60;99.90
20288;DHT22;10303;51.960;8.372;2022-11-30T02:58:21;10.60;99.90
20288;DHT22;10303;51.960;8.372;2022-11-30T03:00:47;10.60;99.90
20288;DHT22;10303;51.960;8.372;2022-11-30T03:03:14;10.70;99.90
20288;DHT22;10303;51.960;8.372;2022-11-30T03:05:40;10.50;99.90
20288;DHT22;10303;51.960;8.372;2022-11-30T03:08:06;10.50;99.90
20288;DHT22;10303;51.960;8.372;2022-11-30T03:10:32;10.50;99.90
20288;DHT22;10303;51.960;8.372;2022-11-30T03:12:59;10.50;99.90
20288;DHT22;10303;51.960;8.372;2022-11-30T03:15:26;10.50;99.90
20288;DHT22;10303;51.960;8.372;2022-11-30T03:17:52;10.50;99.90
20288;DHT22;10303;51.960;8.372;2022-11-30T03:20:18;10.50;99.90
20288;DHT22;10303;51.960;8.372;2022-11-30T03:22:44;10.40;99.90
20288;DHT22;10303;51.960;8.372;2022-11-30T03:25:10;10.40;99.90
20288;DHT22;10303;51.960;8.372;2022-11-30T03:27:36;10.40;99.90
20288;DHT22;10303;51.960;8.372;2022-11-30T03:30:02;10.40;99.90
20288;DHT22;10303;51.960;8.372;2022-11-30T03:32:28;10.40;99.90
20288;DHT22;10303;51.960;8.372;2022-11-30T03:34:55;10.50;99.90
20288;DHT22;10303;51.960;8.372;2022-11-30T03:37:21;10.30;99.90
20288;DHT22;10303;51.960;8.372;2022-11-30T03:39:47;10.40;99.90
20288;DHT22;10303;51.960;8.372;2022-11-30T03:42:13;10.40;99.90
20288;DHT22;10303;51.960;8.372;2022-11-30T03:44:39;10.40;99.90
20288;DHT22;10303;51.960;8.372;2022-11-30T03:47:05;10.50;99.90
20288;DHT22;10303;51.960;8.372;2022-11-30T03:49:31;10.50;99.90
20288;DHT22;10303;51.960;8.372;2022-11-30T03:51:57;10.40;99.90
20288;DHT22;10303;51.960;8.372;2022-11-30T03:54:23;10.50;99.90
20288;DHT22;10303;51.960;8.372;2022-11-30T03:56:49;10.40;99.90
20288;DHT22;10303;51.960;8.372;2022-11-30T03:59:15;10.50;99.90
20288;DHT22;10303;51.960;8.372;2022-11-30T04:01:41;10.50;99.90
20288;DHT22;10303;51.960;8.372;2022-11-30T04:04:07;10.40;99.90
20288;DHT22;10303;51.960;8.372;2022-11-30T04:06:33;10.50;99.90
20288;DHT22;10303;51.960;8.372;2022-11-30T04:08:59;10.40;99.90
20288;DHT22;10303;51.960;8.372;2022-11-30T04:11:25;10.40;99.90
20288;DHT22;10303;51.960;8.372;2022-11-30T04:13:51;10.40;99.90
20288;DHT22;10303;51.960;8.372;2022-11-30T04:16:17;10.40;99.90
20288;DHT22;10303;51.960;8.372;2022-11-30T04:18:43;10.40;99.90
20288;DHT22;10303;51.960;8.372;2022-11-30T04:21:09;10.50;99.90
20288;DHT22;10303;51.960;8.372;2022-11-30T04:23:38;10.50;99.90
20288;DHT22;10303;51.960;8.372;2022-11-30T04:26:07;10.50;99.90
20288;DHT22;10303;51.960;8.372;2022-11-30T04:28:36;10.50;99.90
20288;DHT22;10303;51.960;8.372;2022-11-30T04:31:02;10.50;99.90
20288;DHT22;10303;51.960;8.372;2022-11-30T04:33:28;10.50;99.90
20288;DHT22;10303;51.960;8.372;2022-11-30T04:35:57;10.50;99.90
20288;DHT22;10303;51.960;8.372;2022-11-30T04:38:25;10.50;99.90
20288;DHT22;10303;51.960;8.372;2022-11-30T04:40:52;10.50;99.90
20288;DHT22;10303;51.960;8.372;2022-11-30T04:43:19;10.50;99.90
20288;DHT22;10303;51.960;8.372;2022-11-30T04:45:45;10.60;99.90
20288;DHT22;10303;51.960;8.372;2022-11-30T04:48:12;10.50;99.90
20288;DHT22;10303;51.960;8.372;2022-11-30T04:50:39;10.60;99.90
20288;DHT22;10303;51.960;8.372;2022-11-30T04:53:05;10.60;99.90
20288;DHT22;10303;51.960;8.372;2022-11-30T04:55:32;10.60;99.90
20288;DHT22;10303;51.960;8.372;2022-11-30T04:57:58;10.60;99.90
20288;DHT22;10303;51.960;8.372;2022-11-30T05:00:24;10.60;99.90
20288;DHT22;10303;51.960;8.372;2022-11-30T05:02:50;10.60;99.90
20288;DHT22;10303;51.960;8.372;2022-11-30T05:05:16;10.60;99.90
20288;DHT22;10303;51.960;8.372;2022-11-30T05:07:42;10.60;99.90
20288;DHT22;10303;51.960;8.372;2022-11-30T05:10:09;10.60;99.90
20288;DHT22;10303;51.960;8.372;2022-11-30T05:12:35;10.60;99.90
20288;DHT22;10303;51.960;8.372;2022-11-30T05:15:02;10.60;99.90
20288;DHT22;10303;51.960;8.372;2022-11-30T05:17:28;10.60;99.90
20288;DHT22;10303;51.960;8.372;2022-11-30T05:19:58;10.70;99.90
20288;DHT22;10303;51.960;8.372;2022-11-30T05:22:25;10.70;99.90
20288;DHT22;10303;51.960;8.372;2022-11-30T05:24:51;10.70;99.90
20288;DHT22;10303;51.960;8.372;2022-11-30T05:27:17;10.70;99.90
20288;DHT22;10303;51.960;8.372;2022-11-30T05:29:43;10.70;99.90
20288;DHT22;10303;51.960;8.372;2022-11-30T05:32:09;10.70;99.90
20288;DHT22;10303;51.960;8.372;2022-11-30T05:34:35;10.70;99.90
20288;DHT22;10303;51.960;8.372;2022-11-30T05:37:01;10.80;99.90
20288;DHT22;10303;51.960;8.372;2022-11-30T05:39:27;10.80;99.90
20288;DHT22;10303;51.960;8.372;2022-11-30T05:41:53;10.80;99.90
20288;DHT22;10303;51.960;8.372;2022-11-30T05:44:19;10.80;99.90
20288;DHT22;10303;51.960;8.372;2022-11-30T05:46:48;10.70;99.90
20288;DHT22;10303;51.960;8.372;2022-11-30T05:49:15;10.70;99.90
20288;DHT22;10303;51.960;8.372;2022-11-30T05:51:41;10.80;99.90
20288;DHT22;10303;51.960;8.372;2022-11-30T05:54:07;10.70;99.90
20288;DHT22;10303;51.960;8.372;2022-11-30T05:56:34;10.70;99.90
20288;DHT22;10303;51.960;8.372;2022-11-30T05:59:02;10.70;99.90
20288;DHT22;10303;51.960;8.372;2022-11-30T06:01:28;10.70;99.90
20288;DHT22;10303;51.960;8.372;2022-11-30T06:03:55;10.70;99.90
20288;DHT22;10303;51.960;8.372;2022-11-30T06:06:22;10.70;99.90
20288;DHT22;10303;51.960;8.372;2022-11-30T06:08:48;10.70;99.90
20288;DHT22;10303;51.960;8.372;2022-11-30T06:11:15;10.60;99.90
20288;DHT22;10303;51.960;8.372;2022-11-30T06:13:42;10.70;99.90
20288;DHT22;10303;51.960;8.372;2022-11-30T06:16:08;10.70;99.90
20288;DHT22;10303;51.960;8.372;2022-11-30T06:18:36;10.70;99.90
20288;DHT22;10303;51.960;8.372;2022-11-30T06:21:07;10.70;99.90
20288;DHT22;10303;51.960;8.372;2022-11-30T06:23:35;10.70;99.90
20288;DHT22;10303;51.960;8.372;2022-11-30T06:26:03;10.70;99.90
20288;DHT22;10303;51.960;8.372;2022-11-30T06:28:30;10.70;99.90
20288;DHT22;10303;51.960;8.372;2022-11-30T06:31:02;10.70;99.90
20288;DHT22;10303;51.960;8.372;2022-11-30T06:33:29;10.70;99.90
20288;DHT22;10303;51.960;8.372;2022-11-30T06:35:55;10.70;99.90
20288;DHT22;10303;51.960;8.372;2022-11-30T06:38:21;10.70;99.90
20288;DHT22;10303;51.960;8.372;2022-11-30T06:40:48;10.70;99.90
20288;DHT22;10303;51.960;8.372;2022-11-30T06:43:14;10.70;99.90
20288;DHT22;10303;51.960;8.372;2022-11-30T06:45:45;10.70;99.90
20288;DHT22;10303;51.960;8.372;2022-11-30T06:48:12;10.70;99.90
20288;DHT22;10303;51.960;8.372;2022-11-30T06:50:39;10.70;99.90
20288;DHT22;10303;51.960;8.372;2022-11-30T06:53:06;10.70;99.90
20288;DHT22;10303;51.960;8.372;2022-11-30T06:55:31;10.70;99.90
20288;DHT22;10303;51.960;8.372;2022-11-30T06:58:06;10.80;99.90
20288;DHT22;10303;51.960;8.372;2022-11-30T07:00:33;10.70;99.90
20288;DHT22;10303;51.960;8.372;2022-11-30T07:03:01;10.80;99.90
20288;DHT22;10303;51.960;8.372;2022-11-30T07:05:29;10.80;99.90
20288;DHT22;10303;51.960;8.372;2022-11-30T07:07:57;10.80;99.90
20288;DHT22;10303;51.960;8.372;2022-11-30T07:10:23;10.80;99.90
20288;DHT22;10303;51.960;8.372;2022-11-30T07:12:49;10.80;99.90
20288;DHT22;10303;51.960;8.372;2022-11-30T07:15:16;10.80;99.90
20288;DHT22;10303;51.960;8.372;2022-11-30T07:17:42;10.80;99.90
20288;DHT22;10303;51.960;8.372;2022-11-30T07:20:08;10.80;99.90
20288;DHT22;10303;51.960;8.372;2022-11-30T07:22:34;10.80;99.90
20288;DHT22;10303;51.960;8.372;2022-11-30T07:25:00;10.80;99.90
20288;DHT22;10303;51.960;8.372;2022-11-30T07:27:45;10.90;99.90
20288;DHT22;10303;51.960;8.372;2022-11-30T07:30:11;10.90;99.90
20288;DHT22;10303;51.960;8.372;2022-11-30T07:32:37;10.90;99.90
20288;DHT22;10303;51.960;8.372;2022-11-30T07:35:04;10.90;99.90
20288;DHT22;10303;51.960;8.372;2022-11-30T07:37:30;10.90;99.90
20288;DHT22;10303;51.960;8.372;2022-11-30T07:39:56;10.90;99.90
20288;DHT22;10303;51.960;8.372;2022-11-30T07:42:22;10.80;99.90
20288;DHT22;10303;51.960;8.372;2022-11-30T07:44:48;10.90;99.90
20288;DHT22;10303;51.960;8.372;2022-11-30T07:47:15;10.90;99.90
20288;DHT22;10303;51.960;8.372;2022-11-30T07:49:41;10.90;99.90
20288;DHT22;10303;51.960;8.372;2022-11-30T07:52:07;10.90;99.90
20288;DHT22;10303;51.960;8.372;2022-11-30T07:54:33;10.90;99.90
20288;DHT22;10303;51.960;8.372;2022-11-30T07:56:59;10.90;99.90
20288;DHT22;10303;51.960;8.372;2022-11-30T07:59:25;10.90;99.90
20288;DHT22;10303;51.960;8.372;2022-11-30T08:01:51;10.90;99.90
20288;DHT22;10303;51.960;8.372;2022-11-30T08:04:17;10.90;99.90
20288;DHT22;10303;51.960;8.372;2022-11-30T08:06:43;10.90;99.90
20288;DHT22;10303;51.960;8.372;2022-11-30T08:09:12;10.90;99.90
20288;DHT22;10303;51.960;8.372;2022-11-30T08:11:38;10.90;99.90
20288;DHT22;10303;51.960;8.372;2022-11-30T08:14:04;10.90;99.90
20288;DHT22;10303;51.960;8.372;2022-11-30T08:16:35;10.90;99.90
20288;DHT22;10303;51.960;8.372;2022-11-30T08:19:02;10.90;99.90
20288;DHT22;10303;51.960;8.372;2022-11-30T08:21:28;10.90;99.90
20288;DHT22;10303;51.960;8.372;2022-11-30T08:23:56;10.90;99.90
20288;DHT22;10303;51.960;8.372;2022-11-30T08:28:55;11.00;99.90
20288;DHT22;10303;51.960;8.372;2022-11-30T08:31:27;10.90;99.90
20288;DHT22;10303;51.960;8.372;2022-11-30T08:33:59;10.90;99.90
20288;DHT22;10303;51.960;8.372;2022-11-30T08:36:31;10.90;99.90
20288;DHT22;10303;51.960;8.372;2022-11-30T08:38:58;10.90;99.90
20288;DHT22;10303;51.960;8.372;2022-11-30T08:41:27;10.90;99.90
20288;DHT22;10303;51.960;8.372;2022-11-30T08:43:53;11.00;99.90
20288;DHT22;10303;51.960;8.372;2022-11-30T08:46:20;11.00;99.90
20288;DHT22;10303;51.960;8.372;2022-11-30T08:48:48;11.00;99.90
20288;DHT22;10303;51.960;8.372;2022-11-30T08:51:16;11.00;99.90
20288;DHT22;10303;51.960;8.372;2022-11-30T08:53:44;11.00;99.90
20288;DHT22;10303;51.960;8.372;2022-11-30T08:56:14;11.00;99.90
20288;DHT22;10303;51.960;8.372;2022-11-30T08:58:44;11.00;99.90
20288;DHT22;10303;51.960;8.372;2022-11-30T09:01:16;11.00;99.90
20288;DHT22;10303;51.960;8.372;2022-11-30T09:03:48;11.00;99.90
20288;DHT22;10303;51.960;8.372;2022-11-30T09:06:18;11.00;99.90
20288;DHT22;10303;51.960;8.372;2022-11-30T09:08:48;11.00;99.90
20288;DHT22;10303;51.960;8.372;2022-11-30T09:13:58;11.00;99.90
20288;DHT22;10303;51.960;8.372;2022-11-30T09:16:26;11.10;99.90
20288;DHT22;10303;51.960;8.372;2022-11-30T09:18:53;11.10;99.90
20288;DHT22;10303;51.960;8.372;2022-11-30T09:21:21;11.10;99.90
20288;DHT22;10303;51.960;8.372;2022-11-30T09:23:49;11.10;99.90
20288;DHT22;10303;51.960;8.372;2022-11-30T09:26:17;11.10;99.90
20288;DHT22;10303;51.960;8.372;2022-11-30T09:28:47;11.20;99.90
20288;DHT22;10303;51.960;8.372;2022-11-30T09:31:16;11.20;99.90
20288;DHT22;10303;51.960;8.372;2022-11-30T09:33:50;11.20;99.90
20288;DHT22;10303;51.960;8.372;2022-11-30T09:36:19;11.20;99.90
20288;DHT22;10303;51.960;8.372;2022-11-30T09:38:46;11.20;99.90
20288;DHT22;10303;51.960;8.372;2022-11-30T09:47:38;11.20;99.90
20288;DHT22;10303;51.960;8.372;2022-11-30T09:50:16;11.20;99.90
20288;DHT22;10303;51.960;8.372;2022-11-30T09:52:54;11.20;99.90
20288;DHT22;10303;51.960;8.372;2022-11-30T09:55:38;11.20;99.90
20288;DHT22;10303;51.960;8.372;2022-11-30T09:58:18;11.20;99.90
20288;DHT22;10303;51.960;8.372;2022-11-30T10:00:47;11.30;99.90
20288;DHT22;10303;51.960;8.372;2022-11-30T10:03:13;11.20;99.90
20288;DHT22;10303;51.960;8.372;2022-11-30T10:25:21;11.30;99.90
20288;DHT22;10303;51.960;8.372;2022-11-30T10:27:53;11.30;99.90
20288;DHT22;10303;51.960;8.372;2022-11-30T10:30:34;11.30;99.90
20288;DHT22;10303;51.960;8.372;2022-11-30T10:33:09;11.30;99.90
20288;DHT22;10303;51.960;8.372;2022-11-30T10:36:25;11.30;99.90
20288;DHT22;10303;51.960;8.372;2022-11-30T10:38:42;11.30;99.90
20288;DHT22;10303;51.960;8.372;2022-11-30T10:41:24;11.30;99.90
20288;DHT22;10303;51.960;8.372;2022-11-30T10:44:13;11.30;99.90
20288;DHT22;10303;51.960;8.372;2022-11-30T10:47:09;11.30;99.90
20288;DHT22;10303;51.960;8.372;2022-11-30T10:49:47;11.30;99.90
20288;DHT22;10303;51.960;8.372;2022-11-30T10:52:29;11.30;99.90
20288;DHT22;10303;51.960;8.372;2022-11-30T10:55:09;11.30;99.90
20288;DHT22;10303;51.960;8.372;2022-11-30T10:57:39;11.30;99.90
20288;DHT22;10303;51.960;8.372;2022-11-30T11:00:05;11.30;99.90
20288;DHT22;10303;51.960;8.372;2022-11-30T11:07:58;11.30;99.90
20288;DHT22;10303;51.960;8.372;2022-11-30T11:10:43;11.30;99.90
20288;DHT22;10303;51.960;8.372;2022-11-30T11:16:06;11.30;99.90
20288;DHT22;10303;51.960;8.372;2022-11-30T11:18:54;11.30;99.90
20288;DHT22;10303;51.960;8.372;2022-11-30T11:21:22;11.20;99.90
20288;DHT22;10303;51.960;8.372;2022-11-30T11:23:51;11.30;99.90
20288;DHT22;10303;51.960;8.372;2022-11-30T11:26:20;11.30;99.90
20288;DHT22;10303;51.960;8.372;2022-11-30T11:28:51;11.20;99.90
20288;DHT22;10303;51.960;8.372;2022-11-30T11:31:35;11.20;99.90
20288;DHT22;10303;51.960;8.372;2022-11-30T11:37:11;11.20;99.90
20288;DHT22;10303;51.960;8.372;2022-11-30T11:39:39;11.20;99.90
20288;DHT22;10303;51.960;8.372;2022-11-30T11:42:11;11.20;99.90
20288;DHT22;10303;51.960;8.372;2022-11-30T11:44:40;11.20;99.90
20288;DHT22;10303;51.960;8.372;2022-11-30T11:47:06;11.20;99.90
20288;DHT22;10303;51.960;8.372;2022-11-30T11:53:12;11.20;99.90
20288;DHT22;10303;51.960;8.372;2022-11-30T11:55:43;11.10;99.90
20288;DHT22;10303;51.960;8.372;2022-11-30T11:58:24;11.20;99.90
20288;DHT22;10303;51.960;8.372;2022-11-30T12:01:05;11.10;99.90
20288;DHT22;10303;51.960;8.372;2022-11-30T12:03:59;11.10;99.90
20288;DHT22;10303;51.960;8.372;2022-11-30T12:06:35;11.20;99.90
20288;DHT22;10303;51.960;8.372;2022-11-30T12:09:10;11.20;99.90
20288;DHT22;10303;51.960;8.372;2022-11-30T12:11:44;11.10;99.90
20288;DHT22;10303;51.960;8.372;2022-11-30T12:14:15;11.20;99.90
20288;DHT22;10303;51.960;8.372;2022-11-30T12:20:25;11.20;99.90
20288;DHT22;10303;51.960;8.372;2022-11-30T12:25:50;11.20;99.90
20288;DHT22;10303;51.960;8.372;2022-11-30T12:28:40;11.10;99.90
20288;DHT22;10303;51.960;8.372;2022-11-30T12:31:17;11.10;99.90
20288;DHT22;10303;51.960;8.372;2022-11-30T12:34:14;11.10;99.90
20288;DHT22;10303;51.960;8.372;2022-11-30T12:40:02;11.10;99.90
20288;DHT22;10303;51.960;8.372;2022-11-30T12:45:43;11.10;99.90
20288;DHT22;10303;51.960;8.372;2022-11-30T13:05:23;11.10;99.90
20288;DHT22;10303;51.960;8.372;2022-11-30T13:10:42;11.10;99.90
20288;DHT22;10303;51.960;8.372;2022-11-30T13:13:13;11.10;99.90
20288;DHT22;10303;51.960;8.372;2022-11-30T13:15:44;11.10;99.90
20288;DHT22;10303;51.960;8.372;2022-11-30T13:18:18;11.10;99.90
20288;DHT22;10303;51.960;8.372;2022-11-30T13:24:21;11.10;99.90
20288;DHT22;10303;51.960;8.372;2022-11-30T13:27:20;11.10;99.90
20288;DHT22;10303;51.960;8.372;2022-11-30T13:32:21;11.10;99.90
20288;DHT22;10303;51.960;8.372;2022-11-30T13:34:47;11.10;99.90
20288;DHT22;10303;51.960;8.372;2022-11-30T13:37:18;11.10;99.90
20288;DHT22;10303;51.960;8.372;2022-11-30T13:39:56;11.10;99.90
20288;DHT22;10303;51.960;8.372;2022-11-30T13:47:50;11.10;99.90
20288;DHT22;10303;51.960;8.372;2022-11-30T13:50:36;11.10;99.90
20288;DHT22;10303;51.960;8.372;2022-11-30T13:53:36;11.00;99.90
20288;DHT22;10303;51.960;8.372;2022-11-30T14:01:52;11.00;99.90
20288;DHT22;10303;51.960;8.372;2022-11-30T14:05:36;11.00;99.90
20288;DHT22;10303;51.960;8.372;2022-11-30T14:10:46;11.00;99.90
20288;DHT22;10303;51.960;8.372;2022-11-30T14:21:21;10.90;99.90
20288;DHT22;10303;51.960;8.372;2022-11-30T14:24:02;10.90;99.90
20288;DHT22;10303;51.960;8.372;2022-11-30T14:26:38;10.90;99.90
20288;DHT22;10303;51.960;8.372;2022-11-30T14:31:57;10.80;99.90
20288;DHT22;10303;51.960;8.372;2022-11-30T14:34:41;10.80;99.90
20288;DHT22;10303;51.960;8.372;2022-11-30T14:37:24;10.80;99.90
20288;DHT22;10303;51.960;8.372;2022-11-30T14:39:54;10.80;99.90
20288;DHT22;10303;51.960;8.372;2022-11-30T14:42:26;10.80;99.90
20288;DHT22;10303;51.960;8.372;2022-11-30T14:44:55;10.80;99.90
20288;DHT22;10303;51.960;8.372;2022-11-30T14:47:32;10.80;99.90
20288;DHT22;10303;51.960;8.372;2022-11-30T14:50:01;10.70;99.90
20288;DHT22;10303;51.960;8.372;2022-11-30T14:58:19;10.70;99.90
20288;DHT22;10303;51.960;8.372;2022-11-30T15:00:47;10.70;99.90
20288;DHT22;10303;51.960;8.372;2022-11-30T15:03:22;10.70;99.90
20288;DHT22;10303;51.960;8.372;2022-11-30T15:05:53;10.70;99.90
20288;DHT22;10303;51.960;8.372;2022-11-30T15:08:31;10.70;99.90
20288;DHT22;10303;51.960;8.372;2022-11-30T15:11:06;10.70;99.90
20288;DHT22;10303;51.960;8.372;2022-11-30T15:13:44;10.70;99.90
20288;DHT22;10303;51.960;8.372;2022-11-30T15:18:50;10.70;99.90
20288;DHT22;10303;51.960;8.372;2022-11-30T15:21:26;10.70;99.90
20288;DHT22;10303;51.960;8.372;2022-11-30T15:23:54;10.70;99.90
20288;DHT22;10303;51.960;8.372;2022-11-30T15:26:28;10.70;99.90
20288;DHT22;10303;51.960;8.372;2022-11-30T15:29:02;10.70;99.90
20288;DHT22;10303;51.960;8.372;2022-11-30T15:31:40;10.60;99.90
20288;DHT22;10303;51.960;8.372;2022-11-30T15:34:25;10.60;99.90
20288;DHT22;10303;51.960;8.372;2022-11-30T15:36:55;10.60;99.90
20288;DHT22;10303;51.960;8.372;2022-11-30T15:39:25;10.60;99.90
20288;DHT22;10303;51.960;8.372;2022-11-30T15:42:00;10.60;99.90
20288;DHT22;10303;51.960;8.372;2022-11-30T15:44:39;10.60;99.90
20288;DHT22;10303;51.960;8.372;2022-11-30T15:47:31;10.60;99.90
20288;DHT22;10303;51.960;8.372;2022-11-30T15:52:51;10.50;99.90
20288;DHT22;10303;51.960;8.372;2022-11-30T15:58:40;10.50;99.90
20288;DHT22;10303;51.960;8.372;2022-11-30T16:06:27;10.50;99.90
20288;DHT22;10303;51.960;8.372;2022-11-30T16:09:00;10.50;99.90
20288;DHT22;10303;51.960;8.372;2022-11-30T16:11:29;10.50;99.90
20288;DHT22;10303;51.960;8.372;2022-11-30T16:13:55;10.50;99.90
20288;DHT22;10303;51.960;8.372;2022-11-30T16:16:30;10.50;99.90
20288;DHT22;10303;51.960;8.372;2022-11-30T16:18:57;10.50;99.90
20288;DHT22;10303;51.960;8.372;2022-11-30T16:21:23;10.40;99.90
20288;DHT22;10303;51.960;8.372;2022-11-30T16:23:50;10.40;99.90
20288;DHT22;10303;51.960;8.372;2022-11-30T16:26:17;10.40;99.90
20288;DHT22;10303;51.960;8.372;2022-11-30T16:28:43;10.40;99.90
20288;DHT22;10303;51.960;8.372;2022-11-30T16:31:19;10.50;99.90
20288;DHT22;10303;51.960;8.372;2022-11-30T16:33:47;10.40;99.90
20288;DHT22;10303;51.960;8.372;2022-11-30T16:36:19;10.40;99.90
20288;DHT22;10303;51.960;8.372;2022-11-30T16:38:50;10.40;99.90
20288;DHT22;10303;51.960;8.372;2022-11-30T16:41:25;10.40;99.90
20288;DHT22;10303;51.960;8.372;2022-11-30T16:43:53;10.40;99.90
20288;DHT22;10303;51.960;8.372;2022-11-30T16:46:25;10.40;99.90
20288;DHT22;10303;51.960;8.372;2022-11-30T16:48:53;10.40;99.90
20288;DHT22;10303;51.960;8.372;2022-11-30T16:51:30;10.40;99.90
20288;DHT22;10303;51.960;8.372;2022-11-30T16:53:59;10.40;99.90
20288;DHT22;10303;51.960;8.372;2022-11-30T16:56:25;10.30;99.90
20288;DHT22;10303;51.960;8.372;2022-11-30T16:58:52;10.30;99.90
20288;DHT22;10303;51.960;8.372;2022-11-30T17:01:32;10.30;99.90
20288;DHT22;10303;51.960;8.372;2022-11-30T17:04:22;10.30;99.90
20288;DHT22;10303;51.960;8.372;2022-11-30T17:06:51;10.30;99.90
20288;DHT22;10303;51.960;8.372;2022-11-30T17:09:19;10.30;99.90
20288;DHT22;10303;51.960;8.372;2022-11-30T17:11:50;10.30;99.90
20288;DHT22;10303;51.960;8.372;2022-11-30T17:14:16;10.30;99.90
20288;DHT22;10303;51.960;8.372;2022-11-30T17:16:44;10.30;99.90
20288;DHT22;10303;51.960;8.372;2022-11-30T17:19:10;10.30;99.90
20288;DHT22;10303;51.960;8.372;2022-11-30T17:21:37;10.30;99.90
20288;DHT22;10303;51.960;8.372;2022-11-30T17:24:06;10.20;99.90
20288;DHT22;10303;51.960;8.372;2022-11-30T17:26:32;10.20;99.90
20288;DHT22;10303;51.960;8.372;2022-11-30T17:28:58;10.30;99.90
20288;DHT22;10303;51.960;8.372;2022-11-30T17:31:24;10.30;99.90
20288;DHT22;10303;51.960;8.372;2022-11-30T17:33:50;10.30;99.90
20288;DHT22;10303;51.960;8.372;2022-11-30T17:36:16;10.30;99.90
20288;DHT22;10303;51.960;8.372;2022-11-30T17:38:43;10.30;99.90
20288;DHT22;10303;51.960;8.372;2022-11-30T17:41:15;10.20;99.90
20288;DHT22;10303;51.960;8.372;2022-11-30T17:43:42;10.30;99.90
20288;DHT22;10303;51.960;8.372;2022-11-30T17:46:11;10.30;99.90
20288;DHT22;10303;51.960;8.372;2022-11-30T17:48:41;10.30;99.90
20288;DHT22;10303;51.960;8.372;2022-11-30T17:51:08;10.30;99.90
20288;DHT22;10303;51.960;8.372;2022-11-30T17:53:37;10.30;99.90
20288;DHT22;10303;51.960;8.372;2022-11-30T17:56:15;10.30;99.90
20288;DHT22;10303;51.960;8.372;2022-11-30T17:58:43;10.30;99.90
20288;DHT22;10303;51.960;8.372;2022-11-30T18:01:30;10.30;99.90
20288;DHT22;10303;51.960;8.372;2022-11-30T18:03:56;10.30;99.90
20288;DHT22;10303;51.960;8.372;2022-11-30T18:06:23;10.30;99.90
20288;DHT22;10303;51.960;8.372;2022-11-30T18:08:49;10.30;99.90
20288;DHT22;10303;51.960;8.372;2022-11-30T18:11:21;10.30;99.90
20288;DHT22;10303;51.960;8.372;2022-11-30T18:13:49;10.30;99.90
20288;DHT22;10303;51.960;8.372;2022-11-30T18:16:20;10.30;99.90
20288;DHT22;10303;51.960;8.372;2022-11-30T18:18:52;10.30;99.90
20288;DHT22;10303;51.960;8.372;2022-11-30T18:21:22;10.30;99.90
20288;DHT22;10303;51.960;8.372;2022-11-30T18:23:50;10.30;99.90
20288;DHT22;10303;51.960;8.372;2022-11-30T18:26:23;10.30;99.90